Startpagina
METAR-TAF:

METAR-TAF

Vliegvelden :

Trujillo, Peru

breedte: 08-06S, lengte: 079-02W, hoogte: 26 m

Actueel weer

Dit bericht is 23 minuten geleden gemaakt, om 14:00 UTC
Wind 8 kt uit het zuidzuidoosten
Temperatuur 22°C
Vochtigheid 88%
Druk 1011 hPa
Zicht: 6000 m
Verspreide wolken op 1200 ft

METAR: SPRU 191400Z 16008KT 6000 SCT012 22/20 Q1011 RMK BR PP000

Tijdstip: 09:23 (14:23 UTC)

Verwachting

Dit bericht is 3 uur en het 23 minuten geleden gemaakt, om 11:00 UTC
Verwachting geldig van 19 om 12 UTC tot 20 om 12 UTC
Wind 4 kt uit het oostzuidoosten
Zicht: 7000 m
Tijdelijke
van 19 om 12 UTC tot 19 om 14 UTC
Zicht: 4000 m
Gebroken wolken op 600 ft
nevel
Van 19 om 1600 UTC
Wind 10 kt uit het zuiden
Zicht 10 km of meer
Weinig wolken op 1000 ft
Van 20 om 0200 UTC
Wind 8 kt uit het zuidzuidoosten
Zicht: 7000 m
Gebroken wolken op 15000 ft

TAF: SPRU 191100Z 1912/2012 12004KT 7000 NSC TX25/1919Z TN20/2011Z TEMPO 1912/1914 4000 BR BKN006 FM191600 17010KT 9999 FEW010 FM200200 15008KT 7000 BKN150

Waarnemingen en weersverwachtingen van meer dan 4000 vliegvelden (METAR en TAF).

De beschikbare stations zijn de gele en rode punten op de kaart.

Ga met uw muis naar het station om de naam te zien.

Klik dan om waarnemingen en weersverwachtingen te zien.

kaart wijzigen: klik op de groene knoppen met een zwart kruis om in te zoomen, op de groene knop met een streepje om uit te zoomen of op de groene pijlen voor aangrenzende kaarten.


METAR-TAF: